sensor_id;sensor_type;location;lat;lon;timestamp;P1;durP1;ratioP1;P2;durP2;ratioP2
21959;SDS011;11144;43.030;25.108;2022-10-16T00:00:28;10.88;;;6.53;;
21959;SDS011;11144;43.030;25.108;2022-10-16T00:02:01;14.93;;;6.68;;
21959;SDS011;11144;43.030;25.108;2022-10-16T00:03:34;14.82;;;6.40;;
21959;SDS011;11144;43.030;25.108;2022-10-16T00:05:07;9.68;;;6.15;;
21959;SDS011;11144;43.030;25.108;2022-10-16T00:06:41;13.20;;;6.80;;
21959;SDS011;11144;43.030;25.108;2022-10-16T00:08:15;12.70;;;6.72;;
21959;SDS011;11144;43.030;25.108;2022-10-16T00:09:47;13.13;;;7.07;;
21959;SDS011;11144;43.030;25.108;2022-10-16T00:11:21;12.30;;;7.18;;
21959;SDS011;11144;43.030;25.108;2022-10-16T00:12:55;12.00;;;6.43;;
21959;SDS011;11144;43.030;25.108;2022-10-16T00:14:29;9.82;;;6.55;;
21959;SDS011;11144;43.030;25.108;2022-10-16T00:16:03;13.38;;;7.13;;
21959;SDS011;11144;43.030;25.108;2022-10-16T00:17:35;16.42;;;8.27;;
21959;SDS011;11144;43.030;25.108;2022-10-16T00:19:08;17.80;;;7.35;;
21959;SDS011;11144;43.030;25.108;2022-10-16T00:20:43;14.80;;;7.70;;
21959;SDS011;11144;43.030;25.108;2022-10-16T00:22:17;14.88;;;7.38;;
21959;SDS011;11144;43.030;25.108;2022-10-16T00:23:51;12.27;;;6.75;;
21959;SDS011;11144;43.030;25.108;2022-10-16T00:25:23;15.80;;;7.55;;
21959;SDS011;11144;43.030;25.108;2022-10-16T00:26:57;17.42;;;8.77;;
21959;SDS011;11144;43.030;25.108;2022-10-16T00:28:30;18.48;;;9.90;;
21959;SDS011;11144;43.030;25.108;2022-10-16T00:30:04;18.05;;;8.98;;
21959;SDS011;11144;43.030;25.108;2022-10-16T00:31:39;19.38;;;10.27;;
21959;SDS011;11144;43.030;25.108;2022-10-16T00:33:12;18.67;;;10.13;;
21959;SDS011;11144;43.030;25.108;2022-10-16T00:34:46;25.60;;;10.27;;
21959;SDS011;11144;43.030;25.108;2022-10-16T00:36:20;17.77;;;9.98;;
21959;SDS011;11144;43.030;25.108;2022-10-16T00:37:56;19.63;;;10.00;;
21959;SDS011;11144;43.030;25.108;2022-10-16T00:39:30;22.27;;;10.32;;
21959;SDS011;11144;43.030;25.108;2022-10-16T00:41:03;26.05;;;10.10;;
21959;SDS011;11144;43.030;25.108;2022-10-16T00:42:36;22.88;;;11.02;;
21959;SDS011;11144;43.030;25.108;2022-10-16T00:46:17;19.63;;;10.40;;
21959;SDS011;11144;43.030;25.108;2022-10-16T00:47:54;16.60;;;10.00;;
21959;SDS011;11144;43.030;25.108;2022-10-16T00:49:28;23.88;;;10.32;;
21959;SDS011;11144;43.030;25.108;2022-10-16T00:51:01;19.77;;;10.60;;
21959;SDS011;11144;43.030;25.108;2022-10-16T00:52:34;15.48;;;8.60;;
21959;SDS011;11144;43.030;25.108;2022-10-16T00:54:11;16.92;;;9.32;;
21959;SDS011;11144;43.030;25.108;2022-10-16T00:55:47;16.70;;;8.93;;
21959;SDS011;11144;43.030;25.108;2022-10-16T00:57:19;19.98;;;9.23;;
21959;SDS011;11144;43.030;25.108;2022-10-16T00:58:53;17.90;;;9.60;;
21959;SDS011;11144;43.030;25.108;2022-10-16T01:00:26;15.55;;;8.43;;
21959;SDS011;11144;43.030;25.108;2022-10-16T01:02:00;15.13;;;8.43;;
21959;SDS011;11144;43.030;25.108;2022-10-16T01:03:34;17.70;;;8.73;;
21959;SDS011;11144;43.030;25.108;2022-10-16T01:05:09;26.77;;;8.80;;
21959;SDS011;11144;43.030;25.108;2022-10-16T01:06:43;19.45;;;8.82;;
21959;SDS011;11144;43.030;25.108;2022-10-16T01:08:26;17.55;;;9.20;;
21959;SDS011;11144;43.030;25.108;2022-10-16T01:10:10;21.52;;;8.75;;
21959;SDS011;11144;43.030;25.108;2022-10-16T01:11:57;27.05;;;9.30;;
21959;SDS011;11144;43.030;25.108;2022-10-16T01:13:40;25.77;;;9.15;;
21959;SDS011;11144;43.030;25.108;2022-10-16T01:15:17;18.27;;;9.02;;
21959;SDS011;11144;43.030;25.108;2022-10-16T01:16:58;18.83;;;9.10;;
21959;SDS011;11144;43.030;25.108;2022-10-16T01:18:35;15.30;;;8.43;;
21959;SDS011;11144;43.030;25.108;2022-10-16T01:20:14;29.00;;;8.98;;
21959;SDS011;11144;43.030;25.108;2022-10-16T01:21:57;18.60;;;9.00;;
21959;SDS011;11144;43.030;25.108;2022-10-16T01:23:36;14.25;;;8.43;;
21959;SDS011;11144;43.030;25.108;2022-10-16T01:25:20;15.45;;;8.77;;
21959;SDS011;11144;43.030;25.108;2022-10-16T01:27:11;15.27;;;8.40;;
21959;SDS011;11144;43.030;25.108;2022-10-16T01:28:47;30.38;;;8.48;;
21959;SDS011;11144;43.030;25.108;2022-10-16T01:30:26;16.10;;;7.80;;
21959;SDS011;11144;43.030;25.108;2022-10-16T01:32:06;40.10;;;8.68;;
21959;SDS011;11144;43.030;25.108;2022-10-16T01:33:47;20.10;;;7.32;;
21959;SDS011;11144;43.030;25.108;2022-10-16T01:35:27;51.55;;;9.48;;
21959;SDS011;11144;43.030;25.108;2022-10-16T01:37:06;12.90;;;7.63;;
21959;SDS011;11144;43.030;25.108;2022-10-16T01:38:41;35.45;;;9.35;;
21959;SDS011;11144;43.030;25.108;2022-10-16T01:40:19;30.63;;;8.93;;
21959;SDS011;11144;43.030;25.108;2022-10-16T01:41:58;23.63;;;9.23;;
21959;SDS011;11144;43.030;25.108;2022-10-16T01:43:37;20.05;;;7.53;;
21959;SDS011;11144;43.030;25.108;2022-10-16T01:45:15;29.73;;;8.75;;
21959;SDS011;11144;43.030;25.108;2022-10-16T01:46:52;18.00;;;8.88;;
21959;SDS011;11144;43.030;25.108;2022-10-16T01:48:26;19.75;;;8.38;;
21959;SDS011;11144;43.030;25.108;2022-10-16T01:50:02;18.75;;;7.80;;
21959;SDS011;11144;43.030;25.108;2022-10-16T01:51:38;22.77;;;8.48;;
21959;SDS011;11144;43.030;25.108;2022-10-16T01:53:12;30.13;;;9.25;;
21959;SDS011;11144;43.030;25.108;2022-10-16T01:54:49;26.05;;;9.43;;
21959;SDS011;11144;43.030;25.108;2022-10-16T01:56:24;91.70;;;10.90;;
21959;SDS011;11144;43.030;25.108;2022-10-16T01:57:58;52.60;;;10.45;;
21959;SDS011;11144;43.030;25.108;2022-10-16T01:59:35;27.75;;;8.60;;
21959;SDS011;11144;43.030;25.108;2022-10-16T02:01:11;27.83;;;8.35;;
21959;SDS011;11144;43.030;25.108;2022-10-16T02:02:48;37.95;;;8.80;;
21959;SDS011;11144;43.030;25.108;2022-10-16T02:04:26;23.75;;;7.97;;
21959;SDS011;11144;43.030;25.108;2022-10-16T02:06:02;51.17;;;9.40;;
21959;SDS011;11144;43.030;25.108;2022-10-16T02:07:35;64.95;;;10.60;;
21959;SDS011;11144;43.030;25.108;2022-10-16T02:09:08;38.08;;;9.48;;
21959;SDS011;11144;43.030;25.108;2022-10-16T02:10:42;26.00;;;10.38;;
21959;SDS011;11144;43.030;25.108;2022-10-16T02:12:17;36.47;;;9.45;;
21959;SDS011;11144;43.030;25.108;2022-10-16T02:13:58;46.33;;;10.18;;
21959;SDS011;11144;43.030;25.108;2022-10-16T02:15:35;40.97;;;10.82;;
21959;SDS011;11144;43.030;25.108;2022-10-16T02:17:11;48.30;;;10.35;;
21959;SDS011;11144;43.030;25.108;2022-10-16T02:18:46;84.53;;;11.00;;
21959;SDS011;11144;43.030;25.108;2022-10-16T02:20:19;68.05;;;11.73;;
21959;SDS011;11144;43.030;25.108;2022-10-16T02:22:00;24.23;;;8.30;;
21959;SDS011;11144;43.030;25.108;2022-10-16T02:23:37;131.27;;;12.98;;
21959;SDS011;11144;43.030;25.108;2022-10-16T02:25:19;42.70;;;9.43;;
21959;SDS011;11144;43.030;25.108;2022-10-16T02:27:00;27.02;;;9.70;;
21959;SDS011;11144;43.030;25.108;2022-10-16T02:28:40;38.38;;;11.25;;
21959;SDS011;11144;43.030;25.108;2022-10-16T02:30:19;40.22;;;9.90;;
21959;SDS011;11144;43.030;25.108;2022-10-16T02:32:00;54.83;;;12.23;;
21959;SDS011;11144;43.030;25.108;2022-10-16T02:33:37;109.53;;;13.02;;
21959;SDS011;11144;43.030;25.108;2022-10-16T02:35:13;43.33;;;10.45;;
21959;SDS011;11144;43.030;25.108;2022-10-16T02:36:48;53.90;;;11.07;;
21959;SDS011;11144;43.030;25.108;2022-10-16T02:38:23;55.80;;;10.32;;
21959;SDS011;11144;43.030;25.108;2022-10-16T02:39:58;40.75;;;9.82;;
21959;SDS011;11144;43.030;25.108;2022-10-16T02:41:30;34.97;;;9.60;;
21959;SDS011;11144;43.030;25.108;2022-10-16T02:43:05;48.92;;;8.77;;
21959;SDS011;11144;43.030;25.108;2022-10-16T02:44:39;50.92;;;10.10;;
21959;SDS011;11144;43.030;25.108;2022-10-16T02:46:12;36.80;;;10.07;;
21959;SDS011;11144;43.030;25.108;2022-10-16T02:47:47;35.05;;;9.13;;
21959;SDS011;11144;43.030;25.108;2022-10-16T02:49:20;72.25;;;8.90;;
21959;SDS011;11144;43.030;25.108;2022-10-16T02:50:54;103.22;;;10.65;;
21959;SDS011;11144;43.030;25.108;2022-10-16T02:52:28;91.63;;;9.88;;
21959;SDS011;11144;43.030;25.108;2022-10-16T02:54:01;176.55;;;14.13;;
21959;SDS011;11144;43.030;25.108;2022-10-16T02:55:34;50.88;;;10.63;;
21959;SDS011;11144;43.030;25.108;2022-10-16T02:57:06;21.23;;;9.25;;
21959;SDS011;11144;43.030;25.108;2022-10-16T02:58:40;26.35;;;8.27;;
21959;SDS011;11144;43.030;25.108;2022-10-16T03:00:15;44.63;;;9.35;;
21959;SDS011;11144;43.030;25.108;2022-10-16T03:01:48;32.95;;;8.38;;
21959;SDS011;11144;43.030;25.108;2022-10-16T03:03:23;25.67;;;7.63;;
21959;SDS011;11144;43.030;25.108;2022-10-16T03:04:57;25.65;;;7.43;;
21959;SDS011;11144;43.030;25.108;2022-10-16T03:06:30;18.30;;;6.55;;
21959;SDS011;11144;43.030;25.108;2022-10-16T03:08:04;67.95;;;8.73;;
21959;SDS011;11144;43.030;25.108;2022-10-16T03:09:37;65.93;;;9.38;;
21959;SDS011;11144;43.030;25.108;2022-10-16T03:11:09;40.92;;;7.43;;
21959;SDS011;11144;43.030;25.108;2022-10-16T03:12:42;54.38;;;8.38;;
21959;SDS011;11144;43.030;25.108;2022-10-16T03:14:15;46.92;;;8.45;;
21959;SDS011;11144;43.030;25.108;2022-10-16T03:15:48;32.28;;;8.07;;
21959;SDS011;11144;43.030;25.108;2022-10-16T03:17:22;23.67;;;7.28;;
21959;SDS011;11144;43.030;25.108;2022-10-16T03:18:56;22.15;;;6.93;;
21959;SDS011;11144;43.030;25.108;2022-10-16T03:20:30;37.55;;;8.70;;
21959;SDS011;11144;43.030;25.108;2022-10-16T03:22:03;37.67;;;8.93;;
21959;SDS011;11144;43.030;25.108;2022-10-16T03:23:36;31.38;;;8.60;;
21959;SDS011;11144;43.030;25.108;2022-10-16T03:25:09;34.67;;;8.63;;
21959;SDS011;11144;43.030;25.108;2022-10-16T03:26:42;39.70;;;8.10;;
21959;SDS011;11144;43.030;25.108;2022-10-16T03:28:15;66.43;;;8.70;;
21959;SDS011;11144;43.030;25.108;2022-10-16T03:29:49;69.53;;;9.95;;
21959;SDS011;11144;43.030;25.108;2022-10-16T03:31:21;56.80;;;8.15;;
21959;SDS011;11144;43.030;25.108;2022-10-16T03:32:54;54.75;;;9.23;;
21959;SDS011;11144;43.030;25.108;2022-10-16T03:34:28;82.82;;;9.60;;
21959;SDS011;11144;43.030;25.108;2022-10-16T03:36:01;46.20;;;9.75;;
21959;SDS011;11144;43.030;25.108;2022-10-16T03:37:35;67.65;;;9.73;;
21959;SDS011;11144;43.030;25.108;2022-10-16T03:39:08;52.55;;;9.70;;
21959;SDS011;11144;43.030;25.108;2022-10-16T03:40:41;38.90;;;9.75;;
21959;SDS011;11144;43.030;25.108;2022-10-16T03:42:14;41.53;;;8.93;;
21959;SDS011;11144;43.030;25.108;2022-10-16T03:43:47;26.83;;;7.97;;
21959;SDS011;11144;43.030;25.108;2022-10-16T03:45:20;68.97;;;9.93;;
21959;SDS011;11144;43.030;25.108;2022-10-16T03:46:53;58.75;;;9.63;;
21959;SDS011;11144;43.030;25.108;2022-10-16T03:48:27;32.22;;;8.65;;
21959;SDS011;11144;43.030;25.108;2022-10-16T03:50:03;24.70;;;8.02;;
21959;SDS011;11144;43.030;25.108;2022-10-16T03:51:37;39.95;;;8.77;;
21959;SDS011;11144;43.030;25.108;2022-10-16T03:53:11;30.88;;;9.02;;
21959;SDS011;11144;43.030;25.108;2022-10-16T03:54:44;25.55;;;8.95;;
21959;SDS011;11144;43.030;25.108;2022-10-16T03:56:17;49.85;;;8.32;;
21959;SDS011;11144;43.030;25.108;2022-10-16T03:57:51;42.45;;;9.65;;
21959;SDS011;11144;43.030;25.108;2022-10-16T03:59:24;41.38;;;8.93;;
21959;SDS011;11144;43.030;25.108;2022-10-16T04:00:56;62.60;;;9.65;;
21959;SDS011;11144;43.030;25.108;2022-10-16T04:02:30;22.45;;;7.80;;
21959;SDS011;11144;43.030;25.108;2022-10-16T04:04:03;18.38;;;7.22;;
21959;SDS011;11144;43.030;25.108;2022-10-16T04:05:38;25.20;;;7.72;;
21959;SDS011;11144;43.030;25.108;2022-10-16T04:07:11;26.67;;;7.70;;
21959;SDS011;11144;43.030;25.108;2022-10-16T04:08:44;63.78;;;9.32;;
21959;SDS011;11144;43.030;25.108;2022-10-16T04:10:17;48.05;;;8.95;;
21959;SDS011;11144;43.030;25.108;2022-10-16T04:11:50;15.55;;;7.90;;
21959;SDS011;11144;43.030;25.108;2022-10-16T04:13:23;17.10;;;8.38;;
21959;SDS011;11144;43.030;25.108;2022-10-16T04:14:57;30.00;;;8.85;;
21959;SDS011;11144;43.030;25.108;2022-10-16T04:16:30;69.57;;;10.02;;
21959;SDS011;11144;43.030;25.108;2022-10-16T04:18:03;112.18;;;12.63;;
21959;SDS011;11144;43.030;25.108;2022-10-16T04:19:36;77.18;;;11.95;;
21959;SDS011;11144;43.030;25.108;2022-10-16T04:21:10;283.67;;;18.85;;
21959;SDS011;11144;43.030;25.108;2022-10-16T04:22:44;267.85;;;18.80;;
21959;SDS011;11144;43.030;25.108;2022-10-16T04:24:17;196.07;;;15.40;;
21959;SDS011;11144;43.030;25.108;2022-10-16T04:25:51;116.13;;;11.85;;
21959;SDS011;11144;43.030;25.108;2022-10-16T04:27:24;44.28;;;9.52;;
21959;SDS011;11144;43.030;25.108;2022-10-16T04:28:59;55.42;;;9.40;;
21959;SDS011;11144;43.030;25.108;2022-10-16T04:30:32;77.43;;;10.98;;
21959;SDS011;11144;43.030;25.108;2022-10-16T04:32:07;40.25;;;8.77;;
21959;SDS011;11144;43.030;25.108;2022-10-16T04:33:42;103.28;;;11.00;;
21959;SDS011;11144;43.030;25.108;2022-10-16T04:35:15;28.85;;;6.80;;
21959;SDS011;11144;43.030;25.108;2022-10-16T04:36:50;32.60;;;7.18;;
21959;SDS011;11144;43.030;25.108;2022-10-16T04:38:23;49.95;;;8.38;;
21959;SDS011;11144;43.030;25.108;2022-10-16T04:39:57;110.63;;;9.88;;
21959;SDS011;11144;43.030;25.108;2022-10-16T04:41:30;67.10;;;9.00;;
21959;SDS011;11144;43.030;25.108;2022-10-16T04:43:03;71.35;;;9.15;;
21959;SDS011;11144;43.030;25.108;2022-10-16T04:44:37;161.90;;;13.68;;
21959;SDS011;11144;43.030;25.108;2022-10-16T04:46:10;67.45;;;8.95;;
21959;SDS011;11144;43.030;25.108;2022-10-16T04:47:44;55.40;;;7.75;;
21959;SDS011;11144;43.030;25.108;2022-10-16T04:49:17;109.65;;;10.63;;
21959;SDS011;11144;43.030;25.108;2022-10-16T04:50:50;85.60;;;9.40;;
21959;SDS011;11144;43.030;25.108;2022-10-16T04:52:27;50.13;;;6.68;;
21959;SDS011;11144;43.030;25.108;2022-10-16T04:54:00;51.80;;;8.27;;
21959;SDS011;11144;43.030;25.108;2022-10-16T04:55:34;71.70;;;8.88;;
21959;SDS011;11144;43.030;25.108;2022-10-16T04:57:07;73.20;;;9.10;;
21959;SDS011;11144;43.030;25.108;2022-10-16T04:58:41;32.47;;;7.10;;
21959;SDS011;11144;43.030;25.108;2022-10-16T05:00:13;42.05;;;7.13;;
21959;SDS011;11144;43.030;25.108;2022-10-16T05:01:46;37.38;;;6.55;;
21959;SDS011;11144;43.030;25.108;2022-10-16T05:03:19;25.83;;;6.72;;
21959;SDS011;11144;43.030;25.108;2022-10-16T05:04:52;33.58;;;7.50;;
21959;SDS011;11144;43.030;25.108;2022-10-16T05:06:25;39.10;;;6.75;;
21959;SDS011;11144;43.030;25.108;2022-10-16T05:08:00;13.27;;;5.63;;
21959;SDS011;11144;43.030;25.108;2022-10-16T05:09:34;23.48;;;5.68;;
21959;SDS011;11144;43.030;25.108;2022-10-16T05:11:07;19.08;;;5.93;;
21959;SDS011;11144;43.030;25.108;2022-10-16T05:12:41;22.15;;;6.30;;
21959;SDS011;11144;43.030;25.108;2022-10-16T05:14:14;13.77;;;4.97;;
21959;SDS011;11144;43.030;25.108;2022-10-16T05:15:47;25.30;;;5.78;;
21959;SDS011;11144;43.030;25.108;2022-10-16T05:17:21;50.92;;;7.65;;
21959;SDS011;11144;43.030;25.108;2022-10-16T05:18:54;19.63;;;6.80;;
21959;SDS011;11144;43.030;25.108;2022-10-16T05:20:47;33.22;;;7.05;;
21959;SDS011;11144;43.030;25.108;2022-10-16T05:22:21;18.02;;;6.63;;
21959;SDS011;11144;43.030;25.108;2022-10-16T05:23:55;60.35;;;7.43;;
21959;SDS011;11144;43.030;25.108;2022-10-16T05:25:29;18.77;;;6.05;;
21959;SDS011;11144;43.030;25.108;2022-10-16T05:27:02;13.82;;;5.53;;
21959;SDS011;11144;43.030;25.108;2022-10-16T05:28:35;38.35;;;6.10;;
21959;SDS011;11144;43.030;25.108;2022-10-16T05:30:09;16.02;;;5.78;;
21959;SDS011;11144;43.030;25.108;2022-10-16T05:31:43;14.52;;;6.13;;
21959;SDS011;11144;43.030;25.108;2022-10-16T05:33:16;28.27;;;6.40;;
21959;SDS011;11144;43.030;25.108;2022-10-16T05:34:50;28.17;;;6.45;;
21959;SDS011;11144;43.030;25.108;2022-10-16T05:36:23;20.15;;;5.68;;
21959;SDS011;11144;43.030;25.108;2022-10-16T05:37:55;19.92;;;6.18;;
21959;SDS011;11144;43.030;25.108;2022-10-16T05:39:30;26.65;;;5.88;;
21959;SDS011;11144;43.030;25.108;2022-10-16T05:41:03;47.45;;;7.57;;
21959;SDS011;11144;43.030;25.108;2022-10-16T05:42:37;19.02;;;6.43;;
21959;SDS011;11144;43.030;25.108;2022-10-16T05:44:10;16.55;;;6.50;;
21959;SDS011;11144;43.030;25.108;2022-10-16T05:45:44;36.80;;;8.52;;
21959;SDS011;11144;43.030;25.108;2022-10-16T05:47:16;15.32;;;6.00;;
21959;SDS011;11144;43.030;25.108;2022-10-16T05:48:51;15.93;;;8.05;;
21959;SDS011;11144;43.030;25.108;2022-10-16T05:50:24;42.70;;;7.55;;
21959;SDS011;11144;43.030;25.108;2022-10-16T05:51:57;42.70;;;7.57;;
21959;SDS011;11144;43.030;25.108;2022-10-16T05:53:31;24.77;;;6.68;;
21959;SDS011;11144;43.030;25.108;2022-10-16T05:55:08;16.70;;;8.35;;
21959;SDS011;11144;43.030;25.108;2022-10-16T05:56:41;24.38;;;6.28;;
21959;SDS011;11144;43.030;25.108;2022-10-16T05:58:15;54.95;;;7.47;;
21959;SDS011;11144;43.030;25.108;2022-10-16T05:59:48;29.83;;;7.47;;
21959;SDS011;11144;43.030;25.108;2022-10-16T06:01:20;29.95;;;7.65;;
21959;SDS011;11144;43.030;25.108;2022-10-16T06:02:55;26.25;;;7.53;;
21959;SDS011;11144;43.030;25.108;2022-10-16T06:04:28;60.92;;;7.13;;
21959;SDS011;11144;43.030;25.108;2022-10-16T06:06:07;31.25;;;6.63;;
21959;SDS011;11144;43.030;25.108;2022-10-16T06:07:43;45.30;;;6.30;;
21959;SDS011;11144;43.030;25.108;2022-10-16T06:09:16;49.65;;;6.78;;
21959;SDS011;11144;43.030;25.108;2022-10-16T06:10:57;99.90;;;11.02;;
21959;SDS011;11144;43.030;25.108;2022-10-16T06:12:33;72.75;;;8.23;;
21959;SDS011;11144;43.030;25.108;2022-10-16T06:14:07;47.42;;;6.20;;
21959;SDS011;11144;43.030;25.108;2022-10-16T06:15:41;53.28;;;7.53;;
21959;SDS011;11144;43.030;25.108;2022-10-16T06:17:15;17.40;;;6.10;;
21959;SDS011;11144;43.030;25.108;2022-10-16T06:18:50;14.38;;;6.10;;
21959;SDS011;11144;43.030;25.108;2022-10-16T06:20:23;14.73;;;5.55;;
21959;SDS011;11144;43.030;25.108;2022-10-16T06:21:56;12.25;;;6.80;;
21959;SDS011;11144;43.030;25.108;2022-10-16T06:23:30;19.15;;;7.75;;
21959;SDS011;11144;43.030;25.108;2022-10-16T06:25:02;37.45;;;7.68;;
21959;SDS011;11144;43.030;25.108;2022-10-16T06:26:38;45.13;;;8.18;;
21959;SDS011;11144;43.030;25.108;2022-10-16T06:28:13;28.27;;;7.07;;
21959;SDS011;11144;43.030;25.108;2022-10-16T06:29:46;52.65;;;8.50;;
21959;SDS011;11144;43.030;25.108;2022-10-16T06:31:19;58.70;;;8.63;;
21959;SDS011;11144;43.030;25.108;2022-10-16T06:32:53;21.83;;;7.38;;
21959;SDS011;11144;43.030;25.108;2022-10-16T06:34:26;21.23;;;7.15;;
21959;SDS011;11144;43.030;25.108;2022-10-16T06:36:00;38.97;;;8.45;;
21959;SDS011;11144;43.030;25.108;2022-10-16T06:37:33;43.08;;;8.63;;
21959;SDS011;11144;43.030;25.108;2022-10-16T06:39:06;22.52;;;9.40;;
21959;SDS011;11144;43.030;25.108;2022-10-16T06:40:39;16.92;;;9.95;;
21959;SDS011;11144;43.030;25.108;2022-10-16T06:42:13;24.90;;;10.05;;
21959;SDS011;11144;43.030;25.108;2022-10-16T06:43:47;15.15;;;8.88;;
21959;SDS011;11144;43.030;25.108;2022-10-16T06:45:19;10.68;;;6.95;;
21959;SDS011;11144;43.030;25.108;2022-10-16T06:46:52;26.80;;;9.55;;
21959;SDS011;11144;43.030;25.108;2022-10-16T06:48:26;33.40;;;9.10;;
21959;SDS011;11144;43.030;25.108;2022-10-16T06:50:00;18.58;;;9.13;;
21959;SDS011;11144;43.030;25.108;2022-10-16T06:51:32;16.42;;;9.60;;
21959;SDS011;11144;43.030;25.108;2022-10-16T06:53:13;13.15;;;8.27;;
21959;SDS011;11144;43.030;25.108;2022-10-16T06:54:46;12.48;;;7.15;;
21959;SDS011;11144;43.030;25.108;2022-10-16T06:56:20;14.45;;;7.82;;
21959;SDS011;11144;43.030;25.108;2022-10-16T06:57:56;14.13;;;8.07;;
21959;SDS011;11144;43.030;25.108;2022-10-16T06:59:29;14.18;;;8.38;;
21959;SDS011;11144;43.030;25.108;2022-10-16T07:01:02;13.80;;;6.60;;
21959;SDS011;11144;43.030;25.108;2022-10-16T07:02:36;10.25;;;6.10;;
21959;SDS011;11144;43.030;25.108;2022-10-16T07:04:09;14.02;;;6.05;;
21959;SDS011;11144;43.030;25.108;2022-10-16T07:05:43;14.85;;;7.30;;
21959;SDS011;11144;43.030;25.108;2022-10-16T07:07:16;16.77;;;5.88;;
21959;SDS011;11144;43.030;25.108;2022-10-16T07:08:50;28.08;;;9.13;;
21959;SDS011;11144;43.030;25.108;2022-10-16T07:10:24;12.10;;;8.30;;
21959;SDS011;11144;43.030;25.108;2022-10-16T07:11:57;16.85;;;7.45;;
21959;SDS011;11144;43.030;25.108;2022-10-16T07:13:34;15.60;;;8.63;;
21959;SDS011;11144;43.030;25.108;2022-10-16T07:15:08;15.68;;;8.07;;
21959;SDS011;11144;43.030;25.108;2022-10-16T07:16:41;23.35;;;12.07;;
21959;SDS011;11144;43.030;25.108;2022-10-16T07:18:14;17.08;;;11.50;;
21959;SDS011;11144;43.030;25.108;2022-10-16T07:19:48;19.80;;;12.98;;
21959;SDS011;11144;43.030;25.108;2022-10-16T07:21:24;20.67;;;12.55;;
21959;SDS011;11144;43.030;25.108;2022-10-16T07:23:00;13.18;;;8.40;;
21959;SDS011;11144;43.030;25.108;2022-10-16T07:24:33;10.30;;;6.22;;
21959;SDS011;11144;43.030;25.108;2022-10-16T07:26:07;32.35;;;8.48;;
21959;SDS011;11144;43.030;25.108;2022-10-16T07:27:41;61.30;;;11.20;;
21959;SDS011;11144;43.030;25.108;2022-10-16T07:29:16;24.23;;;9.55;;
21959;SDS011;11144;43.030;25.108;2022-10-16T07:30:51;14.73;;;8.85;;
21959;SDS011;11144;43.030;25.108;2022-10-16T07:32:23;11.52;;;7.55;;
21959;SDS011;11144;43.030;25.108;2022-10-16T07:33:58;10.82;;;6.88;;
21959;SDS011;11144;43.030;25.108;2022-10-16T07:35:31;8.38;;;5.78;;
21959;SDS011;11144;43.030;25.108;2022-10-16T07:37:04;11.40;;;7.00;;
21959;SDS011;11144;43.030;25.108;2022-10-16T07:38:37;8.55;;;6.05;;
21959;SDS011;11144;43.030;25.108;2022-10-16T07:40:10;10.13;;;6.85;;
21959;SDS011;11144;43.030;25.108;2022-10-16T07:41:43;11.98;;;7.07;;
21959;SDS011;11144;43.030;25.108;2022-10-16T07:43:16;9.63;;;6.93;;
21959;SDS011;11144;43.030;25.108;2022-10-16T07:44:51;14.52;;;7.80;;
21959;SDS011;11144;43.030;25.108;2022-10-16T07:46:24;11.27;;;7.30;;
21959;SDS011;11144;43.030;25.108;2022-10-16T07:47:57;9.73;;;6.65;;
21959;SDS011;11144;43.030;25.108;2022-10-16T07:49:31;10.00;;;6.45;;
21959;SDS011;11144;43.030;25.108;2022-10-16T07:51:05;9.15;;;7.28;;
21959;SDS011;11144;43.030;25.108;2022-10-16T07:52:38;10.52;;;7.30;;
21959;SDS011;11144;43.030;25.108;2022-10-16T07:54:12;11.32;;;6.85;;
21959;SDS011;11144;43.030;25.108;2022-10-16T07:55:45;10.00;;;7.30;;
21959;SDS011;11144;43.030;25.108;2022-10-16T07:57:17;10.52;;;7.55;;
21959;SDS011;11144;43.030;25.108;2022-10-16T07:58:51;13.35;;;7.72;;
21959;SDS011;11144;43.030;25.108;2022-10-16T08:00:26;14.68;;;9.18;;
21959;SDS011;11144;43.030;25.108;2022-10-16T08:01:59;9.50;;;7.55;;
21959;SDS011;11144;43.030;25.108;2022-10-16T08:03:33;12.30;;;9.35;;
21959;SDS011;11144;43.030;25.108;2022-10-16T08:05:07;11.38;;;8.40;;
21959;SDS011;11144;43.030;25.108;2022-10-16T08:06:41;12.93;;;10.52;;
21959;SDS011;11144;43.030;25.108;2022-10-16T08:08:15;13.32;;;10.23;;
21959;SDS011;11144;43.030;25.108;2022-10-16T08:09:49;12.20;;;10.90;;
21959;SDS011;11144;43.030;25.108;2022-10-16T08:11:24;14.98;;;11.05;;
21959;SDS011;11144;43.030;25.108;2022-10-16T08:12:57;14.18;;;10.70;;
21959;SDS011;11144;43.030;25.108;2022-10-16T08:14:31;17.70;;;11.05;;
21959;SDS011;11144;43.030;25.108;2022-10-16T08:16:06;12.63;;;9.77;;
21959;SDS011;11144;43.030;25.108;2022-10-16T08:17:41;13.05;;;10.32;;
21959;SDS011;11144;43.030;25.108;2022-10-16T08:19:14;15.15;;;9.88;;
21959;SDS011;11144;43.030;25.108;2022-10-16T08:20:48;17.55;;;10.43;;
21959;SDS011;11144;43.030;25.108;2022-10-16T08:22:28;15.98;;;9.32;;
21959;SDS011;11144;43.030;25.108;2022-10-16T08:24:01;13.45;;;9.85;;
21959;SDS011;11144;43.030;25.108;2022-10-16T08:25:35;14.55;;;9.40;;
21959;SDS011;11144;43.030;25.108;2022-10-16T08:27:09;16.10;;;9.60;;
21959;SDS011;11144;43.030;25.108;2022-10-16T08:28:42;13.38;;;10.18;;
21959;SDS011;11144;43.030;25.108;2022-10-16T08:30:16;14.35;;;9.85;;
21959;SDS011;11144;43.030;25.108;2022-10-16T08:31:52;12.43;;;8.63;;
21959;SDS011;11144;43.030;25.108;2022-10-16T08:33:26;14.18;;;8.68;;
21959;SDS011;11144;43.030;25.108;2022-10-16T08:34:59;13.95;;;9.27;;
21959;SDS011;11144;43.030;25.108;2022-10-16T08:36:32;12.68;;;9.07;;
21959;SDS011;11144;43.030;25.108;2022-10-16T08:38:06;12.02;;;9.50;;
21959;SDS011;11144;43.030;25.108;2022-10-16T08:39:39;10.90;;;8.02;;
21959;SDS011;11144;43.030;25.108;2022-10-16T08:41:32;16.88;;;9.15;;
21959;SDS011;11144;43.030;25.108;2022-10-16T08:43:35;14.18;;;10.23;;
21959;SDS011;11144;43.030;25.108;2022-10-16T08:45:28;9.95;;;7.88;;
21959;SDS011;11144;43.030;25.108;2022-10-16T08:47:17;8.55;;;6.95;;
21959;SDS011;11144;43.030;25.108;2022-10-16T08:48:56;8.07;;;6.40;;
21959;SDS011;11144;43.030;25.108;2022-10-16T08:50:32;11.20;;;6.95;;
21959;SDS011;11144;43.030;25.108;2022-10-16T08:52:10;11.27;;;7.43;;
21959;SDS011;11144;43.030;25.108;2022-10-16T08:53:46;10.85;;;7.15;;
21959;SDS011;11144;43.030;25.108;2022-10-16T08:55:30;11.32;;;6.63;;
21959;SDS011;11144;43.030;25.108;2022-10-16T08:57:08;11.63;;;6.65;;
21959;SDS011;11144;43.030;25.108;2022-10-16T08:58:43;9.88;;;6.30;;
21959;SDS011;11144;43.030;25.108;2022-10-16T09:00:23;8.60;;;6.18;;
21959;SDS011;11144;43.030;25.108;2022-10-16T09:01:59;6.95;;;5.18;;
21959;SDS011;11144;43.030;25.108;2022-10-16T09:03:39;9.30;;;5.60;;
21959;SDS011;11144;43.030;25.108;2022-10-16T09:05:24;11.85;;;6.30;;
21959;SDS011;11144;43.030;25.108;2022-10-16T09:07:09;7.07;;;5.40;;
21959;SDS011;11144;43.030;25.108;2022-10-16T09:08:51;9.05;;;6.18;;
21959;SDS011;11144;43.030;25.108;2022-10-16T09:10:37;9.40;;;6.70;;
21959;SDS011;11144;43.030;25.108;2022-10-16T09:12:18;11.10;;;5.90;;
21959;SDS011;11144;43.030;25.108;2022-10-16T09:13:57;9.77;;;5.82;;
21959;SDS011;11144;43.030;25.108;2022-10-16T09:15:39;7.32;;;5.00;;